Terminal Aerodrome Forecast
Issued by NWS Sterling, VA

Current Version | Previous Version | Graphics & Text | Print | Product List | Glossary On
Versions: 1 2 3 4 5 6 7 8 9 10 11 12 13 14 15 16 17 18 19 20 21 22 23 24 25
000
FTUS41 KLWX 281124
TAFIAD
TAF
KIAD 281124Z 2812/2918 00000KT P6SM BKN120
     FM281800 00000KT P6SM TSRA BKN050CB
     FM290000 00000KT 5SM SHRA VCTS OVC070CB
     FM291200 31006KT P6SM -SHRA VCTS OVC040CB
     FM291300 32008KT P6SM -SHRA VCTS OVC030CB
     FM291600 33011KT P6SM -SHRA VCTS BKN040CB=

USA.gov is the U.S. government's official web portal to all federal, state and local government web resources and services.